sensor_id;sensor_type;location;lat;lon;timestamp;P1;durP1;ratioP1;P2;durP2;ratioP2
19179;SDS011;9722;48.754;8.868;2023-08-31T00:00:47;1.67;;;1.20;;
19179;SDS011;9722;48.754;8.868;2023-08-31T00:04:07;1.63;;;1.30;;
19179;SDS011;9722;48.754;8.868;2023-08-31T00:07:34;2.30;;;1.40;;
19179;SDS011;9722;48.754;8.868;2023-08-31T00:10:55;2.53;;;1.27;;
19179;SDS011;9722;48.754;8.868;2023-08-31T00:14:17;2.53;;;1.40;;
19179;SDS011;9722;48.754;8.868;2023-08-31T00:17:38;1.30;;;1.13;;
19179;SDS011;9722;48.754;8.868;2023-08-31T00:20:58;1.93;;;1.60;;
19179;SDS011;9722;48.754;8.868;2023-08-31T00:24:19;1.27;;;1.17;;
19179;SDS011;9722;48.754;8.868;2023-08-31T00:27:41;2.03;;;1.60;;
19179;SDS011;9722;48.754;8.868;2023-08-31T00:31:02;1.57;;;1.47;;
19179;SDS011;9722;48.754;8.868;2023-08-31T00:34:23;2.50;;;1.50;;
19179;SDS011;9722;48.754;8.868;2023-08-31T00:37:44;1.50;;;1.40;;
19179;SDS011;9722;48.754;8.868;2023-08-31T00:41:06;1.53;;;1.20;;
19179;SDS011;9722;48.754;8.868;2023-08-31T00:44:26;2.27;;;1.40;;
19179;SDS011;9722;48.754;8.868;2023-08-31T00:47:47;1.63;;;1.30;;
19179;SDS011;9722;48.754;8.868;2023-08-31T00:51:09;3.73;;;1.60;;
19179;SDS011;9722;48.754;8.868;2023-08-31T00:54:31;1.70;;;1.47;;
19179;SDS011;9722;48.754;8.868;2023-08-31T00:57:51;1.60;;;1.50;;
19179;SDS011;9722;48.754;8.868;2023-08-31T01:01:24;2.60;;;1.50;;
19179;SDS011;9722;48.754;8.868;2023-08-31T01:04:56;1.67;;;1.57;;
19179;SDS011;9722;48.754;8.868;2023-08-31T01:12:21;1.40;;;1.30;;
19179;SDS011;9722;48.754;8.868;2023-08-31T01:15:51;1.77;;;1.50;;
19179;SDS011;9722;48.754;8.868;2023-08-31T01:19:17;1.80;;;1.70;;
19179;SDS011;9722;48.754;8.868;2023-08-31T01:22:48;1.70;;;1.60;;
19179;SDS011;9722;48.754;8.868;2023-08-31T01:26:20;1.70;;;1.60;;
19179;SDS011;9722;48.754;8.868;2023-08-31T01:29:41;1.57;;;1.33;;
19179;SDS011;9722;48.754;8.868;2023-08-31T01:33:02;1.33;;;1.20;;
19179;SDS011;9722;48.754;8.868;2023-08-31T01:36:26;2.23;;;1.50;;
19179;SDS011;9722;48.754;8.868;2023-08-31T01:43:34;1.60;;;1.50;;
19179;SDS011;9722;48.754;8.868;2023-08-31T01:47:01;1.50;;;1.17;;
19179;SDS011;9722;48.754;8.868;2023-08-31T01:50:26;1.43;;;1.33;;
19179;SDS011;9722;48.754;8.868;2023-08-31T01:53:46;1.27;;;1.10;;
19179;SDS011;9722;48.754;8.868;2023-08-31T01:57:07;1.20;;;1.10;;
19179;SDS011;9722;48.754;8.868;2023-08-31T02:00:27;1.43;;;1.20;;
19179;SDS011;9722;48.754;8.868;2023-08-31T02:03:48;1.50;;;1.30;;
19179;SDS011;9722;48.754;8.868;2023-08-31T02:07:08;1.13;;;1.13;;
19179;SDS011;9722;48.754;8.868;2023-08-31T02:10:29;1.03;;;0.90;;
19179;SDS011;9722;48.754;8.868;2023-08-31T02:13:50;1.40;;;1.00;;
19179;SDS011;9722;48.754;8.868;2023-08-31T02:17:11;1.87;;;1.40;;
19179;SDS011;9722;48.754;8.868;2023-08-31T02:20:31;2.20;;;1.13;;
19179;SDS011;9722;48.754;8.868;2023-08-31T02:23:52;1.30;;;1.20;;
19179;SDS011;9722;48.754;8.868;2023-08-31T02:27:12;2.00;;;1.20;;
19179;SDS011;9722;48.754;8.868;2023-08-31T02:30:33;1.10;;;1.03;;
19179;SDS011;9722;48.754;8.868;2023-08-31T02:33:53;1.80;;;1.10;;
19179;SDS011;9722;48.754;8.868;2023-08-31T02:37:14;1.67;;;1.57;;
19179;SDS011;9722;48.754;8.868;2023-08-31T02:40:34;1.40;;;1.30;;
19179;SDS011;9722;48.754;8.868;2023-08-31T02:43:55;1.97;;;1.00;;
19179;SDS011;9722;48.754;8.868;2023-08-31T02:47:15;1.43;;;1.33;;
19179;SDS011;9722;48.754;8.868;2023-08-31T02:50:37;1.50;;;1.20;;
19179;SDS011;9722;48.754;8.868;2023-08-31T02:53:58;1.60;;;1.40;;
19179;SDS011;9722;48.754;8.868;2023-08-31T02:57:18;1.50;;;1.40;;
19179;SDS011;9722;48.754;8.868;2023-08-31T03:00:39;1.20;;;1.20;;
19179;SDS011;9722;48.754;8.868;2023-08-31T03:04:02;1.50;;;1.40;;
19179;SDS011;9722;48.754;8.868;2023-08-31T03:07:23;1.77;;;1.30;;
19179;SDS011;9722;48.754;8.868;2023-08-31T03:10:44;1.37;;;1.27;;
19179;SDS011;9722;48.754;8.868;2023-08-31T03:14:04;2.37;;;1.40;;
19179;SDS011;9722;48.754;8.868;2023-08-31T03:17:24;1.87;;;1.20;;
19179;SDS011;9722;48.754;8.868;2023-08-31T03:20:45;1.10;;;1.10;;
19179;SDS011;9722;48.754;8.868;2023-08-31T03:24:06;1.97;;;1.07;;
19179;SDS011;9722;48.754;8.868;2023-08-31T03:27:26;1.40;;;1.30;;
19179;SDS011;9722;48.754;8.868;2023-08-31T03:30:53;1.70;;;1.30;;
19179;SDS011;9722;48.754;8.868;2023-08-31T03:34:15;1.70;;;1.60;;
19179;SDS011;9722;48.754;8.868;2023-08-31T03:37:36;1.67;;;1.50;;
19179;SDS011;9722;48.754;8.868;2023-08-31T03:40:57;1.53;;;1.43;;
19179;SDS011;9722;48.754;8.868;2023-08-31T03:44:17;3.60;;;1.30;;
19179;SDS011;9722;48.754;8.868;2023-08-31T03:47:38;1.30;;;1.20;;
19179;SDS011;9722;48.754;8.868;2023-08-31T03:50:59;1.80;;;1.30;;
19179;SDS011;9722;48.754;8.868;2023-08-31T03:54:19;1.60;;;1.37;;
19179;SDS011;9722;48.754;8.868;2023-08-31T03:57:40;1.30;;;1.17;;
19179;SDS011;9722;48.754;8.868;2023-08-31T04:01:00;1.27;;;1.10;;
19179;SDS011;9722;48.754;8.868;2023-08-31T04:04:21;1.50;;;1.20;;
19179;SDS011;9722;48.754;8.868;2023-08-31T04:07:41;3.27;;;1.50;;
19179;SDS011;9722;48.754;8.868;2023-08-31T04:11:02;1.33;;;1.23;;
19179;SDS011;9722;48.754;8.868;2023-08-31T04:14:23;1.63;;;1.50;;
19179;SDS011;9722;48.754;8.868;2023-08-31T04:17:43;2.27;;;1.60;;
19179;SDS011;9722;48.754;8.868;2023-08-31T04:21:04;3.63;;;1.63;;
19179;SDS011;9722;48.754;8.868;2023-08-31T04:24:26;5.00;;;1.60;;
19179;SDS011;9722;48.754;8.868;2023-08-31T04:27:47;3.23;;;1.60;;
19179;SDS011;9722;48.754;8.868;2023-08-31T04:31:09;3.63;;;1.30;;
19179;SDS011;9722;48.754;8.868;2023-08-31T04:34:30;1.53;;;1.20;;
19179;SDS011;9722;48.754;8.868;2023-08-31T04:37:50;2.07;;;1.67;;
19179;SDS011;9722;48.754;8.868;2023-08-31T04:41:11;2.73;;;1.20;;
19179;SDS011;9722;48.754;8.868;2023-08-31T04:44:31;2.07;;;1.30;;
19179;SDS011;9722;48.754;8.868;2023-08-31T04:47:52;1.43;;;1.10;;
19179;SDS011;9722;48.754;8.868;2023-08-31T04:51:31;4.87;;;1.40;;
19179;SDS011;9722;48.754;8.868;2023-08-31T04:54:52;1.97;;;1.07;;
19179;SDS011;9722;48.754;8.868;2023-08-31T04:58:13;1.83;;;1.67;;
19179;SDS011;9722;48.754;8.868;2023-08-31T05:01:33;3.07;;;1.40;;
19179;SDS011;9722;48.754;8.868;2023-08-31T05:04:54;2.63;;;1.47;;
19179;SDS011;9722;48.754;8.868;2023-08-31T05:08:15;1.63;;;1.50;;
19179;SDS011;9722;48.754;8.868;2023-08-31T05:11:35;1.80;;;1.60;;
19179;SDS011;9722;48.754;8.868;2023-08-31T05:14:55;1.80;;;1.70;;
19179;SDS011;9722;48.754;8.868;2023-08-31T05:18:16;2.80;;;1.60;;
19179;SDS011;9722;48.754;8.868;2023-08-31T05:21:36;1.47;;;1.37;;
19179;SDS011;9722;48.754;8.868;2023-08-31T05:24:57;1.70;;;1.60;;
19179;SDS011;9722;48.754;8.868;2023-08-31T05:28:17;3.03;;;1.67;;
19179;SDS011;9722;48.754;8.868;2023-08-31T05:31:38;3.63;;;2.00;;
19179;SDS011;9722;48.754;8.868;2023-08-31T05:34:58;1.80;;;1.70;;
19179;SDS011;9722;48.754;8.868;2023-08-31T05:38:19;1.77;;;1.67;;
19179;SDS011;9722;48.754;8.868;2023-08-31T05:41:40;2.67;;;1.63;;
19179;SDS011;9722;48.754;8.868;2023-08-31T05:45:01;2.13;;;1.67;;
19179;SDS011;9722;48.754;8.868;2023-08-31T05:48:21;2.07;;;1.87;;
19179;SDS011;9722;48.754;8.868;2023-08-31T05:51:42;2.50;;;2.10;;
19179;SDS011;9722;48.754;8.868;2023-08-31T05:55:02;3.20;;;1.83;;
19179;SDS011;9722;48.754;8.868;2023-08-31T05:58:23;1.70;;;1.60;;
19179;SDS011;9722;48.754;8.868;2023-08-31T06:01:43;2.83;;;1.50;;
19179;SDS011;9722;48.754;8.868;2023-08-31T06:05:04;2.60;;;1.93;;
19179;SDS011;9722;48.754;8.868;2023-08-31T06:08:25;3.00;;;1.53;;
19179;SDS011;9722;48.754;8.868;2023-08-31T06:11:46;2.50;;;1.20;;
19179;SDS011;9722;48.754;8.868;2023-08-31T06:15:06;2.77;;;1.70;;
19179;SDS011;9722;48.754;8.868;2023-08-31T06:18:27;2.40;;;1.40;;
19179;SDS011;9722;48.754;8.868;2023-08-31T06:21:48;2.60;;;1.27;;
19179;SDS011;9722;48.754;8.868;2023-08-31T06:25:08;1.43;;;1.10;;
19179;SDS011;9722;48.754;8.868;2023-08-31T06:28:31;1.40;;;1.30;;
19179;SDS011;9722;48.754;8.868;2023-08-31T06:31:51;3.10;;;1.50;;
19179;SDS011;9722;48.754;8.868;2023-08-31T06:35:12;3.23;;;1.20;;
19179;SDS011;9722;48.754;8.868;2023-08-31T06:38:33;1.83;;;1.27;;
19179;SDS011;9722;48.754;8.868;2023-08-31T06:41:55;4.23;;;1.30;;
19179;SDS011;9722;48.754;8.868;2023-08-31T06:45:16;3.17;;;1.40;;
19179;SDS011;9722;48.754;8.868;2023-08-31T06:48:37;3.20;;;1.47;;
19179;SDS011;9722;48.754;8.868;2023-08-31T06:51:57;2.60;;;1.47;;
19179;SDS011;9722;48.754;8.868;2023-08-31T06:55:18;2.73;;;1.50;;
19179;SDS011;9722;48.754;8.868;2023-08-31T06:58:38;2.60;;;1.27;;
19179;SDS011;9722;48.754;8.868;2023-08-31T07:01:59;2.57;;;1.50;;
19179;SDS011;9722;48.754;8.868;2023-08-31T07:05:19;3.40;;;1.50;;
19179;SDS011;9722;48.754;8.868;2023-08-31T07:08:45;2.43;;;1.20;;
19179;SDS011;9722;48.754;8.868;2023-08-31T07:12:07;3.83;;;1.40;;
19179;SDS011;9722;48.754;8.868;2023-08-31T07:15:27;1.93;;;1.30;;
19179;SDS011;9722;48.754;8.868;2023-08-31T07:18:48;3.30;;;1.37;;
19179;SDS011;9722;48.754;8.868;2023-08-31T07:22:08;1.87;;;1.30;;
19179;SDS011;9722;48.754;8.868;2023-08-31T07:25:29;1.57;;;1.30;;
19179;SDS011;9722;48.754;8.868;2023-08-31T07:28:50;3.83;;;1.20;;
19179;SDS011;9722;48.754;8.868;2023-08-31T07:32:10;1.93;;;1.20;;
19179;SDS011;9722;48.754;8.868;2023-08-31T07:35:31;2.23;;;1.60;;
19179;SDS011;9722;48.754;8.868;2023-08-31T07:38:51;1.83;;;1.30;;
19179;SDS011;9722;48.754;8.868;2023-08-31T07:42:12;1.80;;;1.20;;
19179;SDS011;9722;48.754;8.868;2023-08-31T07:45:32;1.83;;;1.40;;
19179;SDS011;9722;48.754;8.868;2023-08-31T07:48:53;2.13;;;1.40;;
19179;SDS011;9722;48.754;8.868;2023-08-31T07:52:14;1.50;;;1.17;;
19179;SDS011;9722;48.754;8.868;2023-08-31T07:55:34;1.67;;;1.17;;
19179;SDS011;9722;48.754;8.868;2023-08-31T07:58:55;2.00;;;1.27;;
19179;SDS011;9722;48.754;8.868;2023-08-31T08:02:16;2.23;;;1.40;;
19179;SDS011;9722;48.754;8.868;2023-08-31T08:05:36;2.67;;;1.50;;
19179;SDS011;9722;48.754;8.868;2023-08-31T08:08:58;3.27;;;1.30;;
19179;SDS011;9722;48.754;8.868;2023-08-31T08:12:19;2.03;;;1.40;;
19179;SDS011;9722;48.754;8.868;2023-08-31T08:15:39;2.67;;;1.60;;
19179;SDS011;9722;48.754;8.868;2023-08-31T08:19:00;3.10;;;1.30;;
19179;SDS011;9722;48.754;8.868;2023-08-31T08:22:20;2.67;;;1.30;;
19179;SDS011;9722;48.754;8.868;2023-08-31T08:25:41;1.13;;;1.03;;
19179;SDS011;9722;48.754;8.868;2023-08-31T08:29:01;2.67;;;1.27;;
19179;SDS011;9722;48.754;8.868;2023-08-31T08:32:23;1.53;;;1.27;;
19179;SDS011;9722;48.754;8.868;2023-08-31T08:35:43;2.53;;;1.33;;
19179;SDS011;9722;48.754;8.868;2023-08-31T08:39:04;2.80;;;1.30;;
19179;SDS011;9722;48.754;8.868;2023-08-31T08:42:25;1.20;;;1.10;;
19179;SDS011;9722;48.754;8.868;2023-08-31T08:45:46;4.83;;;1.67;;
19179;SDS011;9722;48.754;8.868;2023-08-31T08:49:07;2.43;;;1.13;;
19179;SDS011;9722;48.754;8.868;2023-08-31T08:52:30;2.77;;;1.30;;
19179;SDS011;9722;48.754;8.868;2023-08-31T08:55:51;2.43;;;1.03;;
19179;SDS011;9722;48.754;8.868;2023-08-31T08:59:11;3.60;;;1.70;;
19179;SDS011;9722;48.754;8.868;2023-08-31T09:02:33;2.43;;;1.43;;
19179;SDS011;9722;48.754;8.868;2023-08-31T09:05:54;1.57;;;1.20;;
19179;SDS011;9722;48.754;8.868;2023-08-31T09:09:14;2.73;;;1.50;;
19179;SDS011;9722;48.754;8.868;2023-08-31T09:12:36;2.03;;;1.55;;
19179;SDS011;9722;48.754;8.868;2023-08-31T09:15:59;2.20;;;1.40;;
19179;SDS011;9722;48.754;8.868;2023-08-31T09:19:20;2.00;;;1.53;;
19179;SDS011;9722;48.754;8.868;2023-08-31T09:22:42;4.20;;;1.47;;
19179;SDS011;9722;48.754;8.868;2023-08-31T09:26:06;1.70;;;1.10;;
19179;SDS011;9722;48.754;8.868;2023-08-31T09:29:27;3.00;;;1.60;;
19179;SDS011;9722;48.754;8.868;2023-08-31T09:32:51;1.77;;;1.33;;
19179;SDS011;9722;48.754;8.868;2023-08-31T09:36:12;2.60;;;1.50;;
19179;SDS011;9722;48.754;8.868;2023-08-31T09:39:35;2.03;;;1.63;;
19179;SDS011;9722;48.754;8.868;2023-08-31T09:42:57;4.40;;;1.67;;
19179;SDS011;9722;48.754;8.868;2023-08-31T09:46:17;3.03;;;1.50;;
19179;SDS011;9722;48.754;8.868;2023-08-31T09:49:39;3.43;;;1.33;;
19179;SDS011;9722;48.754;8.868;2023-08-31T09:53:03;2.93;;;1.50;;
19179;SDS011;9722;48.754;8.868;2023-08-31T09:56:25;2.50;;;1.77;;
19179;SDS011;9722;48.754;8.868;2023-08-31T09:59:51;2.63;;;1.30;;
19179;SDS011;9722;48.754;8.868;2023-08-31T10:03:12;2.73;;;1.30;;
19179;SDS011;9722;48.754;8.868;2023-08-31T10:06:35;1.83;;;1.63;;
19179;SDS011;9722;48.754;8.868;2023-08-31T10:09:57;2.50;;;1.50;;
19179;SDS011;9722;48.754;8.868;2023-08-31T10:13:17;6.40;;;1.80;;
19179;SDS011;9722;48.754;8.868;2023-08-31T10:16:41;3.27;;;1.90;;
19179;SDS011;9722;48.754;8.868;2023-08-31T10:20:04;2.53;;;1.70;;
19179;SDS011;9722;48.754;8.868;2023-08-31T10:23:26;2.10;;;1.40;;
19179;SDS011;9722;48.754;8.868;2023-08-31T10:26:48;2.87;;;1.20;;
19179;SDS011;9722;48.754;8.868;2023-08-31T10:33:42;3.63;;;1.50;;
19179;SDS011;9722;48.754;8.868;2023-08-31T10:37:16;4.13;;;1.60;;
19179;SDS011;9722;48.754;8.868;2023-08-31T10:40:40;3.63;;;1.77;;
19179;SDS011;9722;48.754;8.868;2023-08-31T10:44:01;3.77;;;1.70;;
19179;SDS011;9722;48.754;8.868;2023-08-31T10:47:22;2.20;;;1.60;;
19179;SDS011;9722;48.754;8.868;2023-08-31T10:51:02;2.47;;;1.53;;
19179;SDS011;9722;48.754;8.868;2023-08-31T10:54:24;3.10;;;1.20;;
19179;SDS011;9722;48.754;8.868;2023-08-31T10:57:56;3.17;;;1.30;;
19179;SDS011;9722;48.754;8.868;2023-08-31T11:01:19;3.83;;;1.40;;
19179;SDS011;9722;48.754;8.868;2023-08-31T11:05:17;2.67;;;1.60;;
19179;SDS011;9722;48.754;8.868;2023-08-31T11:08:38;2.40;;;1.50;;
19179;SDS011;9722;48.754;8.868;2023-08-31T11:11:59;4.40;;;1.30;;
19179;SDS011;9722;48.754;8.868;2023-08-31T11:15:21;2.83;;;1.70;;
19179;SDS011;9722;48.754;8.868;2023-08-31T11:18:42;3.00;;;1.30;;
19179;SDS011;9722;48.754;8.868;2023-08-31T11:22:03;2.60;;;1.40;;
19179;SDS011;9722;48.754;8.868;2023-08-31T11:25:24;1.63;;;1.27;;
19179;SDS011;9722;48.754;8.868;2023-08-31T11:28:44;2.73;;;1.60;;
19179;SDS011;9722;48.754;8.868;2023-08-31T11:32:06;2.07;;;1.40;;
19179;SDS011;9722;48.754;8.868;2023-08-31T11:35:30;1.90;;;1.40;;
19179;SDS011;9722;48.754;8.868;2023-08-31T11:38:55;3.43;;;1.50;;
19179;SDS011;9722;48.754;8.868;2023-08-31T11:42:16;1.87;;;1.27;;
19179;SDS011;9722;48.754;8.868;2023-08-31T11:45:38;2.97;;;1.40;;
19179;SDS011;9722;48.754;8.868;2023-08-31T11:48:59;3.73;;;1.50;;
19179;SDS011;9722;48.754;8.868;2023-08-31T11:52:21;1.67;;;1.50;;
19179;SDS011;9722;48.754;8.868;2023-08-31T11:55:51;1.97;;;1.60;;
19179;SDS011;9722;48.754;8.868;2023-08-31T11:59:17;1.57;;;1.20;;
19179;SDS011;9722;48.754;8.868;2023-08-31T12:02:38;1.70;;;1.20;;
19179;SDS011;9722;48.754;8.868;2023-08-31T12:05:59;2.07;;;1.40;;
19179;SDS011;9722;48.754;8.868;2023-08-31T12:09:21;2.23;;;1.43;;
19179;SDS011;9722;48.754;8.868;2023-08-31T12:12:41;1.70;;;1.00;;
19179;SDS011;9722;48.754;8.868;2023-08-31T12:16:02;2.23;;;1.43;;
19179;SDS011;9722;48.754;8.868;2023-08-31T12:19:26;1.67;;;1.47;;
19179;SDS011;9722;48.754;8.868;2023-08-31T12:22:47;1.70;;;1.20;;
19179;SDS011;9722;48.754;8.868;2023-08-31T12:26:07;3.30;;;1.70;;
19179;SDS011;9722;48.754;8.868;2023-08-31T12:29:28;2.03;;;1.50;;
19179;SDS011;9722;48.754;8.868;2023-08-31T12:32:49;2.40;;;1.40;;
19179;SDS011;9722;48.754;8.868;2023-08-31T12:36:10;2.03;;;1.40;;
19179;SDS011;9722;48.754;8.868;2023-08-31T12:39:30;1.80;;;1.70;;
19179;SDS011;9722;48.754;8.868;2023-08-31T12:42:52;2.67;;;1.50;;
19179;SDS011;9722;48.754;8.868;2023-08-31T12:46:12;2.77;;;1.60;;
19179;SDS011;9722;48.754;8.868;2023-08-31T12:49:33;2.13;;;1.40;;
19179;SDS011;9722;48.754;8.868;2023-08-31T12:52:54;2.27;;;1.73;;
19179;SDS011;9722;48.754;8.868;2023-08-31T12:56:15;2.57;;;1.37;;
19179;SDS011;9722;48.754;8.868;2023-08-31T12:59:41;2.17;;;1.33;;
19179;SDS011;9722;48.754;8.868;2023-08-31T13:03:02;1.80;;;1.33;;
19179;SDS011;9722;48.754;8.868;2023-08-31T13:06:23;3.00;;;1.33;;
19179;SDS011;9722;48.754;8.868;2023-08-31T13:09:45;2.80;;;1.57;;
19179;SDS011;9722;48.754;8.868;2023-08-31T13:13:05;2.00;;;1.53;;
19179;SDS011;9722;48.754;8.868;2023-08-31T13:16:26;2.20;;;1.50;;
19179;SDS011;9722;48.754;8.868;2023-08-31T13:19:47;2.30;;;1.60;;
19179;SDS011;9722;48.754;8.868;2023-08-31T13:23:07;2.30;;;1.50;;
19179;SDS011;9722;48.754;8.868;2023-08-31T13:26:28;2.93;;;1.40;;
19179;SDS011;9722;48.754;8.868;2023-08-31T13:29:48;2.00;;;1.00;;
19179;SDS011;9722;48.754;8.868;2023-08-31T13:33:09;3.00;;;1.40;;
19179;SDS011;9722;48.754;8.868;2023-08-31T13:36:29;1.57;;;1.10;;
19179;SDS011;9722;48.754;8.868;2023-08-31T13:39:50;3.53;;;1.50;;
19179;SDS011;9722;48.754;8.868;2023-08-31T13:43:14;2.33;;;1.30;;
19179;SDS011;9722;48.754;8.868;2023-08-31T13:46:34;2.90;;;1.80;;
19179;SDS011;9722;48.754;8.868;2023-08-31T13:49:55;2.73;;;1.40;;
19179;SDS011;9722;48.754;8.868;2023-08-31T13:53:15;4.60;;;1.30;;
19179;SDS011;9722;48.754;8.868;2023-08-31T13:56:35;2.63;;;1.60;;
19179;SDS011;9722;48.754;8.868;2023-08-31T13:59:56;2.90;;;1.60;;
19179;SDS011;9722;48.754;8.868;2023-08-31T14:03:17;3.43;;;1.47;;
19179;SDS011;9722;48.754;8.868;2023-08-31T14:06:37;2.87;;;1.47;;
19179;SDS011;9722;48.754;8.868;2023-08-31T14:09:58;2.20;;;1.40;;
19179;SDS011;9722;48.754;8.868;2023-08-31T14:13:19;2.77;;;1.60;;
19179;SDS011;9722;48.754;8.868;2023-08-31T14:16:39;2.30;;;1.37;;
19179;SDS011;9722;48.754;8.868;2023-08-31T14:20:00;3.77;;;1.80;;
19179;SDS011;9722;48.754;8.868;2023-08-31T14:23:26;2.40;;;1.77;;
19179;SDS011;9722;48.754;8.868;2023-08-31T14:26:46;3.93;;;1.40;;
19179;SDS011;9722;48.754;8.868;2023-08-31T14:30:07;3.70;;;1.50;;
19179;SDS011;9722;48.754;8.868;2023-08-31T14:33:28;2.97;;;1.90;;
19179;SDS011;9722;48.754;8.868;2023-08-31T14:36:49;2.43;;;1.40;;
19179;SDS011;9722;48.754;8.868;2023-08-31T14:40:10;2.13;;;1.40;;
19179;SDS011;9722;48.754;8.868;2023-08-31T14:43:30;2.63;;;1.40;;
19179;SDS011;9722;48.754;8.868;2023-08-31T14:46:51;2.80;;;1.77;;
19179;SDS011;9722;48.754;8.868;2023-08-31T14:50:12;2.43;;;1.33;;
19179;SDS011;9722;48.754;8.868;2023-08-31T14:53:33;3.73;;;1.40;;
19179;SDS011;9722;48.754;8.868;2023-08-31T14:56:53;4.70;;;1.87;;
19179;SDS011;9722;48.754;8.868;2023-08-31T15:00:14;1.97;;;1.37;;
19179;SDS011;9722;48.754;8.868;2023-08-31T15:03:34;3.10;;;1.60;;
19179;SDS011;9722;48.754;8.868;2023-08-31T15:06:56;2.63;;;1.60;;
19179;SDS011;9722;48.754;8.868;2023-08-31T15:10:17;3.03;;;1.60;;
19179;SDS011;9722;48.754;8.868;2023-08-31T15:13:38;2.27;;;1.67;;
19179;SDS011;9722;48.754;8.868;2023-08-31T15:16:58;1.87;;;1.40;;
19179;SDS011;9722;48.754;8.868;2023-08-31T15:20:19;1.60;;;1.50;;
19179;SDS011;9722;48.754;8.868;2023-08-31T15:23:39;4.10;;;1.87;;
19179;SDS011;9722;48.754;8.868;2023-08-31T15:27:00;4.07;;;1.67;;
19179;SDS011;9722;48.754;8.868;2023-08-31T15:30:21;2.83;;;1.80;;
19179;SDS011;9722;48.754;8.868;2023-08-31T15:33:42;2.80;;;1.60;;
19179;SDS011;9722;48.754;8.868;2023-08-31T15:37:03;2.73;;;1.73;;
19179;SDS011;9722;48.754;8.868;2023-08-31T15:40:24;3.60;;;1.90;;
19179;SDS011;9722;48.754;8.868;2023-08-31T15:43:44;3.47;;;1.80;;
19179;SDS011;9722;48.754;8.868;2023-08-31T15:47:06;3.43;;;2.10;;
19179;SDS011;9722;48.754;8.868;2023-08-31T15:50:26;4.20;;;1.77;;
19179;SDS011;9722;48.754;8.868;2023-08-31T15:53:47;3.47;;;2.03;;
19179;SDS011;9722;48.754;8.868;2023-08-31T15:57:07;2.17;;;1.80;;
19179;SDS011;9722;48.754;8.868;2023-08-31T16:00:30;3.10;;;1.77;;
19179;SDS011;9722;48.754;8.868;2023-08-31T16:03:50;3.60;;;1.90;;
19179;SDS011;9722;48.754;8.868;2023-08-31T16:07:11;4.37;;;2.17;;
19179;SDS011;9722;48.754;8.868;2023-08-31T16:10:32;2.10;;;1.60;;
19179;SDS011;9722;48.754;8.868;2023-08-31T16:13:52;3.83;;;2.10;;
19179;SDS011;9722;48.754;8.868;2023-08-31T16:17:13;4.23;;;1.73;;
19179;SDS011;9722;48.754;8.868;2023-08-31T16:20:35;2.07;;;1.77;;
19179;SDS011;9722;48.754;8.868;2023-08-31T16:23:56;3.10;;;1.67;;
19179;SDS011;9722;48.754;8.868;2023-08-31T16:27:16;3.50;;;1.57;;
19179;SDS011;9722;48.754;8.868;2023-08-31T16:30:37;3.80;;;1.80;;
19179;SDS011;9722;48.754;8.868;2023-08-31T16:33:57;2.67;;;1.47;;
19179;SDS011;9722;48.754;8.868;2023-08-31T16:37:19;2.97;;;1.57;;
19179;SDS011;9722;48.754;8.868;2023-08-31T16:40:40;5.60;;;1.73;;
19179;SDS011;9722;48.754;8.868;2023-08-31T16:44:02;2.00;;;1.50;;
19179;SDS011;9722;48.754;8.868;2023-08-31T16:47:24;2.37;;;1.60;;
19179;SDS011;9722;48.754;8.868;2023-08-31T16:50:45;3.13;;;1.60;;
19179;SDS011;9722;48.754;8.868;2023-08-31T16:54:05;3.63;;;1.60;;
19179;SDS011;9722;48.754;8.868;2023-08-31T16:57:26;3.53;;;1.83;;
19179;SDS011;9722;48.754;8.868;2023-08-31T17:00:47;2.73;;;1.53;;
19179;SDS011;9722;48.754;8.868;2023-08-31T17:04:08;1.97;;;1.50;;
19179;SDS011;9722;48.754;8.868;2023-08-31T17:07:28;3.83;;;1.73;;
19179;SDS011;9722;48.754;8.868;2023-08-31T17:10:49;3.57;;;2.07;;
19179;SDS011;9722;48.754;8.868;2023-08-31T17:14:11;3.67;;;2.07;;
19179;SDS011;9722;48.754;8.868;2023-08-31T17:17:34;4.57;;;1.67;;
19179;SDS011;9722;48.754;8.868;2023-08-31T17:20:55;6.40;;;2.17;;
19179;SDS011;9722;48.754;8.868;2023-08-31T17:24:15;2.57;;;2.30;;
19179;SDS011;9722;48.754;8.868;2023-08-31T17:27:36;3.20;;;2.30;;
19179;SDS011;9722;48.754;8.868;2023-08-31T17:30:57;3.57;;;1.80;;
19179;SDS011;9722;48.754;8.868;2023-08-31T17:34:17;3.13;;;2.07;;
19179;SDS011;9722;48.754;8.868;2023-08-31T17:37:39;2.00;;;1.80;;
19179;SDS011;9722;48.754;8.868;2023-08-31T17:40:59;3.33;;;1.90;;
19179;SDS011;9722;48.754;8.868;2023-08-31T17:44:20;5.73;;;2.00;;
19179;SDS011;9722;48.754;8.868;2023-08-31T17:47:44;2.87;;;1.60;;
19179;SDS011;9722;48.754;8.868;2023-08-31T17:51:05;2.30;;;1.70;;
19179;SDS011;9722;48.754;8.868;2023-08-31T17:54:25;2.20;;;1.70;;
19179;SDS011;9722;48.754;8.868;2023-08-31T17:57:46;2.33;;;1.77;;
19179;SDS011;9722;48.754;8.868;2023-08-31T18:01:06;2.80;;;1.80;;
19179;SDS011;9722;48.754;8.868;2023-08-31T18:04:27;5.10;;;2.10;;
19179;SDS011;9722;48.754;8.868;2023-08-31T18:07:48;5.20;;;2.00;;
19179;SDS011;9722;48.754;8.868;2023-08-31T18:11:08;3.83;;;1.73;;
19179;SDS011;9722;48.754;8.868;2023-08-31T18:14:29;5.97;;;1.90;;
19179;SDS011;9722;48.754;8.868;2023-08-31T18:17:50;4.50;;;2.20;;
19179;SDS011;9722;48.754;8.868;2023-08-31T18:21:10;1.97;;;1.63;;
19179;SDS011;9722;48.754;8.868;2023-08-31T18:24:30;2.47;;;1.60;;
19179;SDS011;9722;48.754;8.868;2023-08-31T18:27:51;4.30;;;1.93;;
19179;SDS011;9722;48.754;8.868;2023-08-31T18:31:12;2.63;;;1.90;;
19179;SDS011;9722;48.754;8.868;2023-08-31T18:34:32;2.73;;;2.17;;
19179;SDS011;9722;48.754;8.868;2023-08-31T18:37:52;5.40;;;2.30;;
19179;SDS011;9722;48.754;8.868;2023-08-31T18:41:13;3.27;;;1.90;;
19179;SDS011;9722;48.754;8.868;2023-08-31T18:44:34;4.50;;;2.10;;
19179;SDS011;9722;48.754;8.868;2023-08-31T18:47:54;3.57;;;1.77;;
19179;SDS011;9722;48.754;8.868;2023-08-31T18:51:15;3.17;;;1.80;;
19179;SDS011;9722;48.754;8.868;2023-08-31T18:54:35;7.93;;;1.73;;
19179;SDS011;9722;48.754;8.868;2023-08-31T18:57:55;2.80;;;1.60;;
19179;SDS011;9722;48.754;8.868;2023-08-31T19:01:16;4.27;;;2.00;;
19179;SDS011;9722;48.754;8.868;2023-08-31T19:04:36;3.33;;;1.83;;
19179;SDS011;9722;48.754;8.868;2023-08-31T19:07:57;2.33;;;1.93;;
19179;SDS011;9722;48.754;8.868;2023-08-31T19:11:18;3.00;;;2.20;;
19179;SDS011;9722;48.754;8.868;2023-08-31T19:14:38;1.90;;;1.50;;
19179;SDS011;9722;48.754;8.868;2023-08-31T19:17:59;3.77;;;1.70;;
19179;SDS011;9722;48.754;8.868;2023-08-31T19:21:19;3.17;;;1.83;;
19179;SDS011;9722;48.754;8.868;2023-08-31T19:24:40;4.57;;;2.10;;
19179;SDS011;9722;48.754;8.868;2023-08-31T19:28:01;2.60;;;1.70;;
19179;SDS011;9722;48.754;8.868;2023-08-31T19:31:23;3.83;;;1.97;;
19179;SDS011;9722;48.754;8.868;2023-08-31T19:34:44;2.87;;;2.27;;
19179;SDS011;9722;48.754;8.868;2023-08-31T19:38:04;2.13;;;1.70;;
19179;SDS011;9722;48.754;8.868;2023-08-31T19:41:25;3.27;;;2.00;;
19179;SDS011;9722;48.754;8.868;2023-08-31T19:44:45;3.10;;;1.80;;
19179;SDS011;9722;48.754;8.868;2023-08-31T19:48:06;3.40;;;2.00;;
19179;SDS011;9722;48.754;8.868;2023-08-31T19:51:27;3.00;;;2.13;;
19179;SDS011;9722;48.754;8.868;2023-08-31T19:54:49;2.53;;;1.97;;
19179;SDS011;9722;48.754;8.868;2023-08-31T19:58:11;2.33;;;1.73;;
19179;SDS011;9722;48.754;8.868;2023-08-31T20:01:32;3.60;;;2.30;;
19179;SDS011;9722;48.754;8.868;2023-08-31T20:04:52;3.80;;;2.17;;
19179;SDS011;9722;48.754;8.868;2023-08-31T20:08:15;2.97;;;1.90;;
19179;SDS011;9722;48.754;8.868;2023-08-31T20:11:35;4.27;;;1.97;;
19179;SDS011;9722;48.754;8.868;2023-08-31T20:14:56;4.37;;;2.00;;
19179;SDS011;9722;48.754;8.868;2023-08-31T20:18:16;3.37;;;2.20;;
19179;SDS011;9722;48.754;8.868;2023-08-31T20:21:37;4.47;;;2.00;;
19179;SDS011;9722;48.754;8.868;2023-08-31T20:24:57;3.07;;;2.30;;
19179;SDS011;9722;48.754;8.868;2023-08-31T20:28:18;5.37;;;1.90;;
19179;SDS011;9722;48.754;8.868;2023-08-31T20:31:39;3.63;;;1.93;;
19179;SDS011;9722;48.754;8.868;2023-08-31T20:35:00;3.67;;;2.53;;
19179;SDS011;9722;48.754;8.868;2023-08-31T20:38:20;4.00;;;2.23;;
19179;SDS011;9722;48.754;8.868;2023-08-31T20:41:41;1.70;;;1.60;;